Time;durP1;ratioP1;P1;durP2;ratioP2;P2;SDS_P1;SDS_P2;PMS_P1;PMS_P2;Temp;Humidity;BMP_temperature;BMP_pressure;BME280_temperature;BME280_humidity;BME280_pressure;Samples;Min_cycle;Max_cycle;Signal;HPM_P1;HPM_P2
2023/10/03 00:01:40;;;;;;;0.57;0.57;;;;;;;18.54;60.43;96179.59;5107256;27;20493;-56
2023/10/03 00:04:10;;;;;;;2.77;0.40;;;;;;;18.65;60.32;96186.34;5134764;27;20442;-56
2023/10/03 00:06:41;;;;;;;0.40;0.30;;;;;;;18.49;60.51;96187.75;5134924;27;20505;-56
2023/10/03 00:09:10;;;;;;;0.40;0.23;;;;;;;18.62;59.47;96188.84;5134573;27;20486;-56
2023/10/03 00:11:39;;;;;;;0.70;0.40;;;;;;;18.53;60.08;96188.72;5134771;27;20499;-56
2023/10/03 00:14:11;;;;;;;0.63;0.43;;;;;;;18.04;60.45;96196.56;5134257;27;20435;-56
2023/10/03 00:16:40;;;;;;;1.90;0.30;;;;;;;18.02;61.37;96196.06;5134382;27;20507;-56
2023/10/03 00:19:08;;;;;;;0.60;0.40;;;;;;;18.23;60.81;96205.38;5133671;27;20435;-56
2023/10/03 00:21:37;;;;;;;1.33;0.40;;;;;;;18.37;60.27;96190.88;5134347;27;20553;-56
2023/10/03 00:24:06;;;;;;;0.50;0.40;;;;;;;18.39;59.89;96193.28;5134132;27;20491;-56
2023/10/03 00:26:35;;;;;;;0.40;0.20;;;;;;;18.12;60.83;96198.59;5134197;27;20525;-55
2023/10/03 00:29:09;;;;;;;0.60;0.30;;;;;;;17.75;61.85;96197.59;5134112;27;20436;-55
2023/10/03 00:31:40;;;;;;;0.47;0.30;;;;;;;17.50;62.00;96200.66;5133717;27;20445;-55
2023/10/03 00:34:08;;;;;;;0.90;0.90;;;;;;;17.04;63.08;96162.19;5134085;27;20468;-55
2023/10/03 00:36:36;;;;;;;0.63;0.63;;;;;;;17.22;63.38;96195.44;5133761;27;20475;-55
2023/10/03 00:39:06;;;;;;;0.50;0.40;;;;;;;17.18;63.43;96186.38;5133825;27;20488;-55
2023/10/03 00:41:35;;;;;;;0.80;0.40;;;;;;;17.14;63.81;96199.56;5133384;27;20474;-55
2023/10/03 00:44:04;;;;;;;1.80;0.60;;;;;;;17.45;62.93;96198.03;5134630;27;20463;-55
2023/10/03 00:46:33;;;;;;;0.93;0.53;;;;;;;17.55;62.30;96183.72;5133901;27;20999;-55
2023/10/03 00:49:14;;;;;;;0.60;0.30;;;;;;;17.35;61.23;96123.16;5134337;27;20930;-55
2023/10/03 00:51:44;;;;;;;3.90;1.10;;;;;;;16.94;63.80;96191.78;5133727;27;20437;-55
2023/10/03 00:54:14;;;;;;;6.77;0.60;;;;;;;16.61;64.85;96193.53;5133336;27;20470;-55
2023/10/03 00:56:45;;;;;;;0.77;0.77;;;;;;;16.75;65.30;96182.91;5133399;27;21035;-55
2023/10/03 00:59:13;;;;;;;0.57;0.40;;;;;;;16.48;65.75;96188.84;5133049;27;20466;-56
2023/10/03 01:01:45;;;;;;;0.60;0.50;;;;;;;16.66;65.84;96185.44;5133050;27;21009;-55
2023/10/03 01:04:19;;;;;;;1.80;0.70;;;;;;;16.70;65.65;96181.09;5133562;27;20438;-55
2023/10/03 01:06:49;;;;;;;0.60;0.50;;;;;;;16.60;66.15;96188.44;5133461;27;20471;-55
2023/10/03 01:09:20;;;;;;;0.70;0.60;;;;;;;16.56;66.40;96193.59;5133539;27;20442;-55
2023/10/03 01:11:52;;;;;;;0.60;0.47;;;;;;;16.61;66.61;96198.09;5133104;27;20499;-55
2023/10/03 01:14:21;;;;;;;0.47;0.23;;;;;;;16.95;65.97;96191.50;5133803;27;20802;-55
2023/10/03 01:16:51;;;;;;;0.53;0.33;;;;;;;16.80;65.05;96127.44;5133007;27;20508;-55
2023/10/03 01:19:25;;;;;;;0.50;0.30;;;;;;;17.29;64.78;96185.13;5132075;27;20444;-55
2023/10/03 01:21:54;;;;;;;0.40;0.30;;;;;;;17.52;63.99;96189.63;5132806;27;20516;-56
2023/10/03 01:24:25;;;;;;;0.40;0.30;;;;;;;17.62;63.86;96187.63;5132399;27;21010;-55
2023/10/03 01:26:53;;;;;;;2.40;0.50;;;;;;;17.12;63.97;96186.47;5133323;27;20499;-55
2023/10/03 01:29:22;;;;;;;0.57;0.57;;;;;;;16.82;65.45;96194.09;5132842;27;20443;-55
2023/10/03 01:31:53;;;;;;;6.93;0.83;;;;;;;16.95;66.06;96196.06;5132629;27;20449;-55
2023/10/03 01:34:21;;;;;;;0.50;0.40;;;;;;;16.93;65.86;96196.34;5133486;27;20439;-55
2023/10/03 01:36:50;;;;;;;0.57;0.40;;;;;;;17.12;65.45;96197.19;5132895;27;20818;-55
2023/10/03 01:39:19;;;;;;;0.50;0.30;;;;;;;17.25;64.38;96198.34;5132882;27;20438;-55
2023/10/03 01:41:49;;;;;;;0.60;0.40;;;;;;;17.38;63.45;96200.28;5131530;27;20470;-55
2023/10/03 01:44:18;;;;;;;0.40;0.30;;;;;;;17.37;63.47;96204.06;5132769;27;20435;-55
2023/10/03 01:46:47;;;;;;;0.50;0.37;;;;;;;17.15;64.59;96201.16;5132116;27;21113;-55
2023/10/03 01:49:16;;;;;;;0.50;0.40;;;;;;;17.08;64.54;96206.06;5132958;27;20440;-55
2023/10/03 01:51:44;;;;;;;0.50;0.40;;;;;;;17.26;64.32;96202.59;5132228;27;20435;-56
2023/10/03 01:54:13;;;;;;;2.13;0.67;;;;;;;17.43;63.94;96202.88;5131971;27;20529;-56
2023/10/03 01:56:41;;;;;;;2.00;0.57;;;;;;;17.42;63.74;96205.84;5131908;27;20468;-55
2023/10/03 01:59:11;;;;;;;0.50;0.30;;;;;;;17.45;63.83;96206.09;5132893;27;20886;-55
2023/10/03 02:01:40;;;;;;;0.50;0.30;;;;;;;17.23;63.70;96194.34;5105962;27;20473;-56
2023/10/03 02:04:09;;;;;;;0.67;0.67;;;;;;;17.38;63.62;96208.31;5132291;27;20450;-56
2023/10/03 02:06:37;;;;;;;0.57;0.40;;;;;;;16.74;65.86;96213.47;5132575;27;20435;-56
2023/10/03 02:09:08;;;;;;;1.37;0.67;;;;;;;15.86;67.58;96161.09;5132576;27;20861;-55
2023/10/03 02:11:37;;;;;;;0.60;0.57;;;;;;;15.89;69.65;96208.66;5132123;27;20521;-55
2023/10/03 02:14:07;;;;;;;1.10;0.87;;;;;;;15.66;71.20;96203.28;5132572;27;20964;-56
2023/10/03 02:16:43;;;;;;;0.83;0.60;;;;;;;15.69;71.98;96210.72;5132425;28;20478;-56
2023/10/03 02:19:12;;;;;;;2.97;1.57;;;;;;;15.60;73.23;96212.41;5132444;28;20469;-56
2023/10/03 02:21:42;;;;;;;1.53;1.10;;;;;;;15.65;72.69;96221.19;5132463;27;20431;-55
2023/10/03 02:24:13;;;;;;;0.63;0.43;;;;;;;15.43;74.77;96223.41;5132225;27;20442;-57
2023/10/03 02:26:44;;;;;;;0.73;0.73;;;;;;;15.59;74.15;96222.28;5132512;27;20985;-55
2023/10/03 02:29:12;;;;;;;0.93;0.60;;;;;;;15.46;74.81;96219.41;5106220;28;20448;-55
2023/10/03 02:31:44;;;;;;;0.83;0.80;;;;;;;15.50;74.35;96217.81;5131917;27;20789;-55
2023/10/03 02:34:14;;;;;;;1.40;0.70;;;;;;;15.41;76.05;96222.09;5132114;28;20449;-55
2023/10/03 02:36:44;;;;;;;0.60;0.57;;;;;;;15.42;75.53;96221.84;5135264;27;20489;-55
2023/10/03 02:39:14;;;;;;;0.70;0.70;;;;;;;15.31;76.76;96214.16;5126906;27;20447;-55
2023/10/03 02:41:43;;;;;;;0.83;0.53;;;;;;;15.31;76.61;96219.50;5133053;27;20434;-55
2023/10/03 02:44:13;;;;;;;1.20;0.70;;;;;;;15.42;75.97;96218.34;5136813;27;20891;-55
2023/10/03 02:46:44;;;;;;;2.20;1.30;;;;;;;15.27;76.48;96211.25;5136108;27;20442;-55
2023/10/03 02:49:13;;;;;;;1.13;0.70;;;;;;;15.49;76.01;96225.03;5136768;27;20775;-55
2023/10/03 02:51:42;;;;;;;0.90;0.83;;;;;;;15.66;74.93;96230.78;5136379;27;20494;-55
2023/10/03 02:54:11;;;;;;;0.77;0.77;;;;;;;15.87;74.00;96226.06;5136162;27;20438;-55
2023/10/03 02:56:39;;;;;;;0.70;0.60;;;;;;;16.11;72.66;96229.63;5135797;27;20434;-56
2023/10/03 02:59:08;;;;;;;0.97;0.87;;;;;;;16.05;73.11;96227.25;5135484;27;20442;-55
2023/10/03 03:01:38;;;;;;;0.50;0.47;;;;;;;16.18;71.92;96223.94;5132797;27;20466;-55
2023/10/03 03:04:11;;;;;;;0.60;0.50;;;;;;;16.20;73.06;96221.75;5129599;27;20883;-55
2023/10/03 03:06:40;;;;;;;1.70;0.43;;;;;;;16.14;72.82;96221.00;5135902;27;20442;-55
2023/10/03 03:09:13;;;;;;;0.50;0.33;;;;;;;16.27;71.70;96203.50;5136356;27;20443;-56
2023/10/03 03:11:47;;;;;;;0.60;0.47;;;;;;;16.28;72.05;96229.97;5135717;27;20481;-55
2023/10/03 03:14:16;;;;;;;0.60;0.40;;;;;;;16.21;71.62;96213.47;5135382;27;20503;-55
2023/10/03 03:16:48;;;;;;;1.07;1.07;;;;;;;16.37;71.85;96217.56;5135754;27;20435;-54
2023/10/03 03:19:18;;;;;;;4.87;0.50;;;;;;;16.28;70.85;96223.84;5134857;27;20836;-54
2023/10/03 03:21:46;;;;;;;1.80;0.63;;;;;;;16.13;71.45;96214.09;5135937;27;20941;-55
2023/10/03 03:24:17;;;;;;;1.53;1.23;;;;;;;16.15;72.01;96222.63;5135459;27;20477;-55
2023/10/03 03:26:48;;;;;;;0.70;0.67;;;;;;;16.22;71.50;96214.25;5135447;27;20435;-54
2023/10/03 03:29:31;;;;;;;1.40;1.33;;;;;;;16.27;71.83;96219.53;5135689;27;20452;-55
2023/10/03 03:31:59;;;;;;;1.57;0.60;;;;;;;16.68;69.92;96219.94;5134841;27;20437;-55
2023/10/03 03:34:30;;;;;;;1.20;1.10;;;;;;;16.81;69.33;96222.75;5135390;27;20434;-54
2023/10/03 03:37:20;;;;;;;0.87;0.87;;;;;;;16.96;69.93;96224.44;5134522;27;20438;-55
2023/10/03 03:39:53;;;;;;;0.50;0.40;;;;;;;16.93;69.35;96200.91;5134592;27;20954;-55
2023/10/03 03:42:22;;;;;;;0.60;0.60;;;;;;;16.84;70.24;96232.88;5135456;27;20438;-55
2023/10/03 03:44:51;;;;;;;0.50;0.40;;;;;;;17.03;70.00;96219.50;5135486;27;20442;-55
2023/10/03 03:47:19;;;;;;;0.60;0.40;;;;;;;16.84;69.76;96227.53;5134291;27;20527;-54
2023/10/03 03:50:10;;;;;;;0.50;0.40;;;;;;;16.96;69.97;96229.78;5134917;27;20438;-55
2023/10/03 03:52:40;;;;;;;0.50;0.37;;;;;;;16.79;69.58;96189.31;5135252;27;20438;-55
2023/10/03 03:55:11;;;;;;;0.40;0.30;;;;;;;16.79;69.80;96240.19;5108893;27;20443;-54
2023/10/03 03:57:39;;;;;;;0.63;0.40;;;;;;;16.77;70.34;96219.06;5135114;27;20430;-54
2023/10/03 04:00:14;;;;;;;2.30;0.43;;;;;;;16.72;70.23;96229.03;5134641;27;21020;-55
2023/10/03 04:02:42;;;;;;;0.50;0.30;;;;;;;16.49;71.26;96230.59;5133531;27;20922;-54
2023/10/03 04:05:12;;;;;;;1.13;0.30;;;;;;;16.23;71.46;96189.09;5134760;27;20434;-54
2023/10/03 04:07:41;;;;;;;0.50;0.40;;;;;;;16.34;71.93;96234.19;5135098;27;20529;-55
2023/10/03 04:10:12;;;;;;;0.40;0.30;;;;;;;16.21;71.87;96229.53;5134684;27;20438;-55
2023/10/03 04:12:42;;;;;;;1.10;0.63;;;;;;;16.46;71.04;96226.59;5134476;27;20438;-53
2023/10/03 04:15:15;;;;;;;1.50;0.30;;;;;;;16.39;70.08;96203.94;5134740;27;20442;-53
2023/10/03 04:17:43;;;;;;;0.50;0.50;;;;;;;16.67;70.13;96231.75;5134199;27;20423;-53
2023/10/03 04:20:19;;;;;;;1.90;0.40;;;;;;;16.76;69.81;96232.72;5134584;27;20438;-54
2023/10/03 04:22:50;;;;;;;0.40;0.30;;;;;;;16.64;70.95;96238.47;5109912;27;20438;-53
2023/10/03 04:25:20;;;;;;;0.80;0.47;;;;;;;16.60;71.75;96234.75;5134041;27;20466;-54
2023/10/03 04:27:49;;;;;;;6.83;0.83;;;;;;;16.95;86.00;96233.56;5133449;27;20443;-48
2023/10/03 04:30:20;;;;;;;2.27;0.40;;;;;;;17.30;87.17;96232.31;5134119;27;20442;-49
2023/10/03 04:32:49;;;;;;;0.67;0.63;;;;;;;17.28;81.58;96232.56;5134338;27;20983;-49
2023/10/03 04:35:19;;;;;;;0.60;0.53;;;;;;;16.93;77.18;96233.84;5133197;27;20438;-49
2023/10/03 04:37:51;;;;;;;4.33;0.70;;;;;;;16.72;79.30;96234.38;5133041;27;20804;-48
2023/10/03 04:40:27;;;;;;;0.70;0.60;;;;;;;17.10;79.02;96242.19;5131623;27;20439;-48
2023/10/03 04:42:57;;;;;;;1.03;0.93;;;;;;;16.79;77.82;96237.50;5131693;27;20793;-48
2023/10/03 04:45:26;;;;;;;0.83;0.83;;;;;;;17.23;81.52;96243.34;5132295;27;20950;-48
2023/10/03 04:47:55;;;;;;;1.47;0.43;;;;;;;17.50;79.33;96240.06;5131835;27;20863;-49
2023/10/03 04:50:25;;;;;;;0.70;0.70;;;;;;;17.82;79.60;96239.31;5132745;27;20942;-49
2023/10/03 04:52:55;;;;;;;0.40;0.30;;;;;;;17.78;75.45;96234.53;5132811;27;20805;-48
2023/10/03 04:55:24;;;;;;;0.50;0.40;;;;;;;17.64;72.87;96241.75;5133418;27;20484;-48
2023/10/03 04:57:53;;;;;;;0.73;0.73;;;;;;;16.95;74.69;96206.78;5133185;27;20438;-49
2023/10/03 05:00:23;;;;;;;0.67;0.67;;;;;;;17.64;77.22;96247.09;5133840;27;20462;-49
2023/10/03 05:02:52;;;;;;;0.80;0.50;;;;;;;17.94;76.52;96247.72;5133162;27;20498;-49
2023/10/03 05:05:23;;;;;;;0.50;0.40;;;;;;;18.15;75.94;96249.78;5123012;27;20479;-49
2023/10/03 05:07:56;;;;;;;5.50;0.50;;;;;;;18.54;75.38;96262.81;5130811;27;20595;-49
2023/10/03 05:10:25;;;;;;;0.70;0.70;;;;;;;18.12;73.40;96199.38;5133894;27;20427;-49
2023/10/03 05:12:54;;;;;;;1.90;0.63;;;;;;;18.66;71.83;96246.22;5133199;27;20438;-49
2023/10/03 05:15:23;;;;;;;0.97;0.53;;;;;;;18.63;71.51;96246.81;5133986;27;20466;-49
2023/10/03 05:17:51;;;;;;;0.40;0.30;;;;;;;18.69;72.10;96249.13;5133822;27;20554;-49
2023/10/03 05:20:20;;;;;;;0.60;0.60;;;;;;;18.84;71.40;96253.41;5132773;27;20526;-49
2023/10/03 05:22:50;;;;;;;0.80;0.50;;;;;;;19.09;70.79;96257.47;5106990;27;20436;-49
2023/10/03 05:25:19;;;;;;;0.50;0.40;;;;;;;19.22;69.65;96264.72;5132421;27;20481;-49
2023/10/03 05:27:49;;;;;;;2.30;0.60;;;;;;;19.22;67.21;96270.09;5133296;27;20805;-49
2023/10/03 05:30:18;;;;;;;2.40;0.83;;;;;;;18.94;67.19;96237.06;5133212;27;20811;-49
2023/10/03 05:32:47;;;;;;;0.50;0.50;;;;;;;18.36;67.02;96242.97;5132994;27;20495;-49
2023/10/03 05:35:16;;;;;;;0.90;0.53;;;;;;;18.54;68.96;96281.63;5132299;27;20517;-49
2023/10/03 05:37:44;;;;;;;1.37;0.40;;;;;;;18.98;66.94;96276.47;5132642;27;20961;-49
2023/10/03 05:40:18;;;;;;;1.30;0.67;;;;;;;16.98;68.15;95971.31;5132224;27;20445;-49
2023/10/03 05:42:49;;;;;;;1.20;1.17;;;;;;;19.64;67.78;96277.81;5132716;27;20468;-50
2023/10/03 05:45:19;;;;;;;1.50;0.83;;;;;;;19.37;66.60;96267.94;5132862;27;20885;-49
2023/10/03 05:47:49;;;;;;;3.27;0.57;;;;;;;19.59;66.80;96277.91;5132826;27;20437;-50
2023/10/03 05:50:20;;;;;;;1.13;0.40;;;;;;;19.35;67.30;96282.72;5119094;27;20566;-50
2023/10/03 05:52:49;;;;;;;3.27;0.73;;;;;;;19.27;66.44;96235.06;5131591;27;20491;-50
2023/10/03 05:55:18;;;;;;;1.23;1.23;;;;;;;19.19;65.12;96176.63;5132400;27;20489;-51
2023/10/03 05:57:48;;;;;;;1.53;0.50;;;;;;;20.18;64.12;96282.22;5131613;27;20868;-51
2023/10/03 06:00:18;;;;;;;2.13;1.03;;;;;;;20.14;60.48;96282.00;5122864;27;20526;-55
2023/10/03 06:02:48;;;;;;;1.43;0.63;;;;;;;19.62;60.41;96286.19;5124818;27;20550;-55
2023/10/03 06:05:17;;;;;;;0.80;0.80;;;;;;;20.12;59.65;96286.91;5123778;27;20531;-56
2023/10/03 06:07:46;;;;;;;0.60;0.60;;;;;;;19.77;60.21;96286.94;5132422;27;20442;-56
2023/10/03 06:10:16;;;;;;;1.53;1.43;;;;;;;20.02;61.31;96294.44;5131816;27;20442;-56
2023/10/03 06:12:48;;;;;;;0.73;0.63;;;;;;;20.59;61.24;96288.19;5132246;27;20434;-49
2023/10/03 06:15:18;;;;;;;0.67;0.50;;;;;;;21.12;61.44;96285.47;5131417;27;20487;-49
2023/10/03 06:17:47;;;;;;;0.40;0.30;;;;;;;21.47;55.65;96289.84;5118476;28;20934;-49
2023/10/03 06:20:15;;;;;;;1.13;1.03;;;;;;;21.77;55.52;96296.22;5131772;28;20926;-49
2023/10/03 06:22:44;;;;;;;0.50;0.50;;;;;;;21.31;54.14;96287.88;5132204;27;20437;-49
2023/10/03 06:25:12;;;;;;;0.50;0.50;;;;;;;21.84;57.79;96298.44;5131857;28;20966;-49
2023/10/03 06:27:41;;;;;;;3.33;0.60;;;;;;;21.73;53.47;96297.94;5132067;28;20838;-49
2023/10/03 06:30:10;;;;;;;1.37;1.27;;;;;;;21.64;53.73;96293.66;5132036;28;20474;-49
2023/10/03 06:32:41;;;;;;;0.60;0.43;;;;;;;22.17;52.60;96294.19;5131705;28;20482;-49
2023/10/03 06:35:10;;;;;;;2.63;1.03;;;;;;;22.33;52.45;96291.78;5132090;28;20438;-49
2023/10/03 06:37:39;;;;;;;0.93;0.93;;;;;;;21.93;51.98;96289.28;5132010;28;20459;-49
2023/10/03 06:40:08;;;;;;;0.50;0.50;;;;;;;22.32;50.94;96285.59;5132523;27;20943;-50
2023/10/03 06:42:37;;;;;;;1.30;1.03;;;;;;;22.52;50.11;96294.94;5132500;27;20456;-49
2023/10/03 06:45:08;;;;;;;0.70;0.50;;;;;;;22.99;51.13;96288.47;5132245;27;20481;-49
2023/10/03 06:47:38;;;;;;;3.60;1.00;;;;;;;23.36;48.42;96284.19;5132163;27;20826;-50
2023/10/03 06:50:09;;;;;;;1.10;1.10;;;;;;;22.87;50.45;96225.38;5132053;27;20507;-50
2023/10/03 06:52:37;;;;;;;2.73;1.27;;;;;;;23.98;48.42;96287.72;5132353;27;20515;-50
2023/10/03 06:55:06;;;;;;;1.10;0.70;;;;;;;24.62;48.39;96290.03;5132034;27;20434;-50
2023/10/03 06:57:36;;;;;;;0.60;0.60;;;;;;;24.76;46.12;96290.56;5132278;27;21003;-51
2023/10/03 07:00:06;;;;;;;5.30;1.10;;;;;;;24.54;45.92;96293.66;5132613;28;20434;-55
2023/10/03 07:02:35;;;;;;;0.80;0.80;;;;;;;24.61;45.04;96291.19;5131871;27;20466;-55
2023/10/03 07:05:04;;;;;;;0.50;0.40;;;;;;;24.46;44.47;96295.31;5131796;28;20470;-55
2023/10/03 07:07:34;;;;;;;0.53;0.53;;;;;;;24.48;44.31;96289.56;5131349;27;20442;-56
2023/10/03 07:10:04;;;;;;;0.77;0.77;;;;;;;24.58;44.52;96262.84;5132145;28;20477;-56
2023/10/03 07:12:32;;;;;;;0.67;0.37;;;;;;;25.23;43.44;96289.06;5128509;27;20436;-56
2023/10/03 07:15:01;;;;;;;0.93;0.93;;;;;;;25.38;43.33;96290.28;5122861;28;20441;-57
2023/10/03 07:17:29;;;;;;;0.83;0.83;;;;;;;25.88;43.60;96293.41;5131184;28;20434;-57
2023/10/03 07:19:58;;;;;;;0.90;0.80;;;;;;;26.10;41.80;96285.91;5132388;28;20457;-56
2023/10/03 07:22:26;;;;;;;0.50;0.50;;;;;;;26.05;41.94;96286.94;5132912;27;20438;-56
2023/10/03 07:24:56;;;;;;;2.60;0.60;;;;;;;25.53;42.71;96286.13;5135942;27;20466;-55
2023/10/03 07:27:25;;;;;;;1.97;0.93;;;;;;;25.38;43.01;96224.34;5135246;27;20442;-55
2023/10/03 07:29:55;;;;;;;0.90;0.90;;;;;;;25.33;43.01;96290.50;5135500;27;20486;-56
2023/10/03 07:32:23;;;;;;;0.73;0.50;;;;;;;25.97;41.34;96287.88;5135767;27;20760;-56
2023/10/03 07:34:53;;;;;;;2.93;1.10;;;;;;;26.38;42.11;96284.00;5134918;27;20521;-56
2023/10/03 07:37:21;;;;;;;2.30;0.87;;;;;;;26.29;41.07;96277.91;5135430;27;20438;-56
2023/10/03 07:39:50;;;;;;;0.87;0.87;;;;;;;26.56;41.78;96279.06;5134373;27;20973;-55
2023/10/03 07:42:23;;;;;;;1.50;0.97;;;;;;;26.46;42.11;96289.28;5135590;27;20434;-56
2023/10/03 07:44:52;;;;;;;0.67;0.67;;;;;;;26.66;41.45;96284.78;5134717;27;20469;-55
2023/10/03 07:47:21;;;;;;;1.30;1.30;;;;;;;26.72;41.21;96277.94;5134966;27;20442;-55
2023/10/03 07:49:51;;;;;;;3.50;1.30;;;;;;;27.07;41.68;96278.06;5135256;27;20495;-55
2023/10/03 07:52:19;;;;;;;0.60;0.60;;;;;;;27.17;40.94;96279.50;5135029;27;20469;-55
2023/10/03 07:54:54;;;;;;;0.83;0.83;;;;;;;27.12;40.64;96200.84;5134482;27;20431;-55
2023/10/03 07:57:25;;;;;;;1.60;0.50;;;;;;;27.26;39.30;96271.94;5135003;27;20431;-56
2023/10/03 07:59:54;;;;;;;2.63;0.73;;;;;;;27.41;39.49;96271.16;5128499;27;20431;-56
2023/10/03 08:02:29;;;;;;;0.50;0.50;;;;;;;27.94;39.94;96275.84;5127885;27;20478;-55
2023/10/03 08:05:00;;;;;;;0.80;0.80;;;;;;;28.12;39.32;96268.09;5134553;27;20442;-56
2023/10/03 08:07:31;;;;;;;0.87;0.87;;;;;;;28.20;38.39;96269.81;5134408;27;20431;-55
2023/10/03 08:10:02;;;;;;;4.33;0.33;;;;;;;29.13;37.25;96264.91;5134131;27;20509;-56
2023/10/03 08:12:38;;;;;;;1.90;1.13;;;;;;;27.77;39.07;96272.75;5133860;27;20441;-56
2023/10/03 08:15:16;;;;;;;0.83;0.70;;;;;;;28.39;38.04;96269.78;5134515;27;20541;-57
2023/10/03 08:17:48;;;;;;;2.60;2.10;;;;;;;28.11;37.65;96267.28;5133763;27;20442;-57
2023/10/03 08:20:18;;;;;;;1.40;1.10;;;;;;;28.66;37.12;96244.25;5133956;27;20483;-56
2023/10/03 08:22:51;;;;;;;2.00;0.97;;;;;;;28.43;37.80;96246.13;5134522;27;20438;-54
2023/10/03 08:25:21;;;;;;;1.40;1.30;;;;;;;27.55;39.24;96266.81;5133714;27;20486;-56
2023/10/03 08:27:52;;;;;;;1.63;1.50;;;;;;;28.13;38.45;96221.38;5134181;27;20927;-56
2023/10/03 08:30:30;;;;;;;0.90;0.90;;;;;;;28.98;36.24;96260.38;5134373;27;20474;-55
2023/10/03 08:33:00;;;;;;;0.73;0.50;;;;;;;29.05;37.11;96257.75;5133475;27;20430;-56
2023/10/03 08:35:35;;;;;;;0.40;0.40;;;;;;;28.83;36.29;96260.13;5133623;27;20434;-55
2023/10/03 08:38:07;;;;;;;1.50;1.40;;;;;;;28.86;37.13;96188.47;5133188;27;20438;-55
2023/10/03 08:40:39;;;;;;;0.80;0.70;;;;;;;29.07;35.99;96252.75;5133746;27;20529;-55
2023/10/03 08:43:11;;;;;;;0.40;0.40;;;;;;;29.96;35.48;96245.53;5133780;27;20438;-55
2023/10/03 08:45:41;;;;;;;1.03;0.97;;;;;;;29.84;36.28;96248.50;5133557;27;20900;-54
2023/10/03 08:48:10;;;;;;;1.13;0.47;;;;;;;30.51;34.97;96240.34;5133660;27;20449;-54
2023/10/03 08:50:46;;;;;;;0.87;0.70;;;;;;;29.41;35.33;96252.53;5133546;27;20450;-55
2023/10/03 08:53:26;;;;;;;1.03;0.93;;;;;;;28.90;35.74;96248.53;5132883;27;20437;-54
2023/10/03 08:55:58;;;;;;;0.50;0.40;;;;;;;29.62;35.78;96245.81;5133491;27;21024;-54
2023/10/03 08:58:28;;;;;;;0.77;0.60;;;;;;;30.92;33.39;96235.69;5107450;27;20930;-55
2023/10/03 09:01:01;;;;;;;1.60;1.00;;;;;;;30.47;34.76;96226.63;5132516;27;20944;-54
2023/10/03 09:03:42;;;;;;;1.17;0.70;;;;;;;30.22;33.75;96236.47;5121520;27;20474;-54
2023/10/03 09:06:19;;;;;;;0.73;0.63;;;;;;;30.42;35.13;96223.44;5133356;27;20474;-54
2023/10/03 09:08:50;;;;;;;2.77;1.30;;;;;;;30.64;33.86;96231.50;5133784;27;20837;-54
2023/10/03 09:11:20;;;;;;;1.07;1.07;;;;;;;30.36;33.48;96214.78;5133155;27;20509;-54
2023/10/03 09:13:53;;;;;;;0.40;0.40;;;;;;;30.20;34.19;96200.50;5132551;27;20446;-57
2023/10/03 09:16:29;;;;;;;0.80;0.80;;;;;;;30.26;33.85;96223.63;5132739;27;20541;-56
2023/10/03 09:18:57;;;;;;;1.83;0.67;;;;;;;30.70;33.75;96204.56;5132921;27;20441;-56
2023/10/03 09:21:27;;;;;;;0.60;0.60;;;;;;;31.35;32.89;96213.75;5132956;27;20442;-56
2023/10/03 09:24:01;;;;;;;0.80;0.60;;;;;;;31.12;32.75;96213.16;5132772;27;20430;-57
2023/10/03 09:26:45;;;;;;;1.77;1.20;;;;;;;30.65;33.95;96204.91;5132938;27;20528;-57
2023/10/03 09:29:29;;;;;;;1.20;0.80;;;;;;;30.63;34.61;96207.25;5133449;27;20442;-57
2023/10/03 09:32:07;;;;;;;0.50;0.50;;;;;;;31.71;32.64;96200.28;5131832;27;20442;-57
2023/10/03 09:34:40;;;;;;;0.50;0.40;;;;;;;32.00;31.65;96180.84;5132390;27;20442;-57
2023/10/03 09:37:09;;;;;;;0.50;0.50;;;;;;;32.62;30.34;96194.38;5132960;27;20434;-57
2023/10/03 09:39:49;;;;;;;4.20;0.40;;;;;;;32.88;32.19;96179.50;5133005;27;20446;-57
2023/10/03 09:42:23;;;;;;;0.63;0.63;;;;;;;33.11;30.21;96183.47;5108867;27;20441;-57
2023/10/03 09:44:57;;;;;;;1.00;0.60;;;;;;;33.91;29.46;96183.69;5131698;27;20469;-58
2023/10/03 09:47:30;;;;;;;0.37;0.30;;;;;;;33.85;29.83;96177.81;5132753;27;20480;-58
2023/10/03 09:50:06;;;;;;;0.40;0.30;;;;;;;33.99;30.03;96181.69;5132477;27;20437;-58
2023/10/03 09:52:37;;;;;;;0.83;0.70;;;;;;;33.30;29.00;96179.50;5132892;27;20442;-58
2023/10/03 09:55:21;;;;;;;0.90;0.70;;;;;;;32.59;29.80;96171.22;5132781;27;20513;-63
2023/10/03 09:57:54;;;;;;;0.40;0.30;;;;;;;34.38;29.92;96171.31;5132388;27;20968;-62
2023/10/03 10:00:38;;;;;;;0.50;0.50;;;;;;;33.02;29.32;96168.50;5132294;27;20444;-63
2023/10/03 10:03:12;;;;;;;1.10;1.10;;;;;;;33.53;28.70;96163.34;5131991;27;20915;-62
2023/10/03 10:05:50;;;;;;;4.00;0.73;;;;;;;34.28;29.66;96152.91;5132329;27;20502;-62
2023/10/03 10:08:29;;;;;;;0.50;0.40;;;;;;;33.54;29.48;96144.91;5132155;27;20471;-62
2023/10/03 10:11:07;;;;;;;2.60;0.70;;;;;;;32.51;31.03;96142.19;5132828;27;20811;-61
2023/10/03 10:13:37;;;;;;;0.40;0.40;;;;;;;32.68;30.60;96150.84;5132124;27;20437;-62
2023/10/03 10:16:13;;;;;;;1.40;0.70;;;;;;;32.63;29.00;96147.34;5132610;27;20438;-62
2023/10/03 10:18:59;;;;;;;0.80;0.63;;;;;;;32.74;29.35;96149.31;5132391;27;20949;-62
2023/10/03 10:21:31;;;;;;;0.40;0.30;;;;;;;34.45;28.12;96127.22;5132781;28;20433;-62
2023/10/03 10:24:36;;;;;;;2.03;1.83;;;;;;;34.68;28.67;96126.69;5132293;28;20740;-62
2023/10/03 10:27:19;;;;;;;0.40;0.40;;;;;;;33.74;28.38;96124.03;5132218;27;20496;-63
2023/10/03 10:30:00;;;;;;;0.50;0.40;;;;;;;34.95;27.75;96119.38;5132190;28;20430;-61
2023/10/03 10:32:31;;;;;;;0.97;0.57;;;;;;;34.45;28.65;96117.00;5108321;28;20434;-61
2023/10/03 10:35:01;;;;;;;2.20;1.10;;;;;;;34.05;27.72;96112.13;5131770;28;20446;-61
2023/10/03 10:37:52;;;;;;;0.60;0.50;;;;;;;32.19;29.38;96124.88;5133852;28;20852;-61
2023/10/03 10:40:22;;;;;;;0.43;0.43;;;;;;;32.35;29.74;96114.34;5132136;28;20532;-61
2023/10/03 10:43:01;;;;;;;1.47;0.73;;;;;;;33.21;29.37;96118.69;5131767;28;20473;-61
2023/10/03 10:45:37;;;;;;;0.93;0.93;;;;;;;34.69;28.49;96109.75;5131278;27;20426;-61
2023/10/03 10:48:09;;;;;;;0.40;0.40;;;;;;;34.28;27.51;96100.59;5131745;27;20509;-61
2023/10/03 10:51:09;;;;;;;0.77;0.77;;;;;;;33.08;27.92;96106.53;5131880;28;20442;-61
2023/10/03 10:53:44;;;;;;;0.50;0.40;;;;;;;33.16;28.82;96097.09;5107974;28;20473;-61
2023/10/03 10:56:13;;;;;;;1.37;1.10;;;;;;;32.75;28.81;96093.97;5131699;27;20957;-61
2023/10/03 10:59:01;;;;;;;0.60;0.43;;;;;;;32.53;29.69;96054.78;5136345;27;20441;-62
2023/10/03 11:01:39;;;;;;;0.60;0.60;;;;;;;33.65;29.04;96085.97;5135262;27;20441;-61
2023/10/03 11:04:23;;;;;;;0.63;0.50;;;;;;;33.59;28.12;96082.06;5122269;27;20438;-61
2023/10/03 11:06:53;;;;;;;1.83;0.60;;;;;;;33.91;28.36;96081.91;5135787;27;20494;-61
2023/10/03 11:09:23;;;;;;;1.00;0.70;;;;;;;33.76;27.20;96075.72;5135191;27;20792;-62
2023/10/03 11:11:52;;;;;;;1.17;1.07;;;;;;;34.47;27.61;96064.28;5135278;27;20782;-62
2023/10/03 11:14:29;;;;;;;0.70;0.70;;;;;;;36.08;25.59;96057.44;5135090;27;20937;-63
2023/10/03 11:16:58;;;;;;;0.40;0.40;;;;;;;36.52;25.67;96053.66;5135267;27;20429;-55
2023/10/03 11:19:31;;;;;;;0.50;0.50;;;;;;;35.73;25.65;96017.31;5135331;27;20922;-57
2023/10/03 11:21:59;;;;;;;2.20;0.60;;;;;;;34.78;26.49;96051.44;5134519;27;20796;-59
2023/10/03 11:27:24;;;;;;;1.03;0.47;;;;;;;34.11;26.93;96036.22;5134581;27;20265;-62
2023/10/03 11:29:52;;;;;;;0.53;0.50;;;;;;;34.80;26.64;96033.31;5135024;27;20599;-62
2023/10/03 11:32:26;;;;;;;0.80;0.80;;;;;;;35.64;26.66;96025.34;5120860;27;20506;-62
2023/10/03 11:34:57;;;;;;;0.97;0.40;;;;;;;35.72;25.26;96019.28;5135077;27;20696;-61
2023/10/03 11:37:45;;;;;;;0.70;0.63;;;;;;;35.42;25.61;96024.78;5135105;27;20878;-62
2023/10/03 11:40:15;;;;;;;4.13;0.60;;;;;;;35.50;24.97;96025.47;5134729;27;20196;-62
2023/10/03 11:42:44;;;;;;;0.60;0.53;;;;;;;34.89;25.45;95958.47;5134755;27;20203;-62
2023/10/03 11:45:18;;;;;;;0.40;0.40;;;;;;;35.90;26.30;96013.53;5134740;27;20200;-62
2023/10/03 11:48:06;;;;;;;0.80;0.40;;;;;;;34.99;25.53;96013.44;5134735;27;20208;-62
2023/10/03 11:50:38;;;;;;;0.90;0.90;;;;;;;34.93;25.30;96020.59;5113031;27;20953;-62
2023/10/03 11:53:08;;;;;;;1.23;0.40;;;;;;;34.37;25.14;95933.00;5134441;27;20652;-62
2023/10/03 11:55:40;;;;;;;1.37;1.00;;;;;;;33.63;25.80;96010.56;5134904;27;20629;-63
2023/10/03 11:58:10;;;;;;;6.20;0.73;;;;;;;33.55;26.58;96009.81;5134445;27;20275;-61